Time;durP1;ratioP1;P1;durP2;ratioP2;P2;SDS_P1;SDS_P2;PMS_P1;PMS_P2;Temp;Humidity;BMP_temperature;BMP_pressure;BME280_temperature;BME280_humidity;BME280_pressure;Samples;Min_cycle;Max_cycle;Signal;HPM_P1;HPM_P2
2024/01/25 00:01:07;;;;;;;37.70;6.40;;;7.90;99.90;;;;;;5111629;28;20028;-74
2024/01/25 00:03:33;;;;;;;21.88;6.40;;;7.80;99.90;;;;;;5111611;28;20085;-74
2024/01/25 00:05:58;;;;;;;31.58;6.40;;;7.90;99.90;;;;;;5111566;28;20040;-74
2024/01/25 00:08:24;;;;;;;24.92;6.15;;;7.90;99.90;;;;;;5111517;28;20067;-74
2024/01/25 00:10:49;;;;;;;29.05;6.40;;;7.90;99.90;;;;;;5112522;28;20522;-74
2024/01/25 00:13:15;;;;;;;30.02;5.55;;;7.90;99.90;;;;;;5111428;28;20074;-74
2024/01/25 00:15:41;;;;;;;24.55;5.68;;;7.90;99.90;;;;;;5112714;28;20483;-74
2024/01/25 00:18:06;;;;;;;30.35;6.10;;;7.90;99.90;;;;;;5112508;28;20042;-74
2024/01/25 00:20:32;;;;;;;20.10;4.82;;;8.00;99.90;;;;;;5111149;28;20517;-74
2024/01/25 00:22:57;;;;;;;26.08;5.15;;;8.00;99.90;;;;;;5111268;28;20035;-75
2024/01/25 00:25:23;;;;;;;22.95;7.00;;;8.00;99.90;;;;;;5112281;28;20035;-74
2024/01/25 00:27:49;;;;;;;27.38;5.32;;;7.90;99.90;;;;;;5110935;28;20050;-74
2024/01/25 00:30:15;;;;;;;34.38;7.22;;;7.90;99.90;;;;;;5094253;28;20042;-74
2024/01/25 00:32:40;;;;;;;35.00;7.93;;;7.90;99.90;;;;;;5111272;28;20043;-74
2024/01/25 00:35:07;;;;;;;29.88;6.45;;;7.80;99.90;;;;;;5112317;28;20118;-74
2024/01/25 00:37:32;;;;;;;28.33;4.93;;;7.80;99.90;;;;;;5112126;28;20084;-74
2024/01/25 00:39:58;;;;;;;18.17;5.15;;;7.70;99.90;;;;;;5111999;28;20040;-74
2024/01/25 00:42:24;;;;;;;24.83;5.40;;;7.80;99.90;;;;;;5110909;28;20039;-74
2024/01/25 00:44:50;;;;;;;26.00;7.43;;;7.80;99.90;;;;;;5111194;28;20043;-74
2024/01/25 00:47:16;;;;;;;29.98;6.13;;;7.70;99.90;;;;;;5110713;28;20062;-75
2024/01/25 00:49:42;;;;;;;28.52;5.30;;;7.70;99.90;;;;;;5110701;28;20487;-74
2024/01/25 00:52:08;;;;;;;27.40;6.80;;;7.70;99.90;;;;;;5111042;28;20050;-74
2024/01/25 00:54:34;;;;;;;26.45;4.93;;;7.60;99.90;;;;;;5110762;28;20567;-74
2024/01/25 00:57:00;;;;;;;30.27;5.75;;;7.50;99.90;;;;;;5110733;28;20130;-74
2024/01/25 00:59:26;;;;;;;33.65;6.15;;;7.50;99.90;;;;;;5093338;28;20032;-74
2024/01/25 01:01:55;;;;;;;29.23;7.25;;;7.50;99.90;;;;;;5110772;28;20035;-74
2024/01/25 01:04:20;;;;;;;24.80;5.90;;;7.50;99.90;;;;;;5110834;28;20410;-74
2024/01/25 01:06:47;;;;;;;36.42;5.82;;;7.40;99.90;;;;;;5110453;28;20044;-74
2024/01/25 01:09:13;;;;;;;25.10;7.07;;;7.40;99.90;;;;;;5111721;28;20407;-74
2024/01/25 01:11:39;;;;;;;36.25;5.82;;;7.40;99.90;;;;;;5112074;28;20028;-74
2024/01/25 01:14:04;;;;;;;28.60;6.03;;;7.30;99.90;;;;;;5112108;28;20035;-74
2024/01/25 01:16:32;;;;;;;31.45;6.45;;;7.40;99.90;;;;;;5111801;28;20039;-74
2024/01/25 01:19:05;;;;;;;26.98;5.40;;;7.40;99.90;;;;;;5093564;28;20118;-74
2024/01/25 01:21:31;;;;;;;29.52;6.63;;;7.30;99.90;;;;;;5110711;28;20043;-74
2024/01/25 01:23:56;;;;;;;25.63;5.90;;;7.30;99.90;;;;;;5111272;28;20093;-74
2024/01/25 01:26:22;;;;;;;28.30;5.68;;;7.30;99.90;;;;;;5110626;28;20035;-74
2024/01/25 01:28:47;;;;;;;26.63;6.15;;;7.30;99.90;;;;;;5110711;28;20041;-74
2024/01/25 01:31:14;;;;;;;27.08;4.90;;;7.30;99.90;;;;;;5110486;28;20486;-74
2024/01/25 01:33:39;;;;;;;24.05;5.72;;;7.20;99.90;;;;;;5111826;28;20487;-74
2024/01/25 01:36:05;;;;;;;24.98;6.18;;;7.30;99.90;;;;;;5111550;28;20058;-74
2024/01/25 01:38:31;;;;;;;23.85;6.90;;;7.30;99.90;;;;;;5093254;28;20039;-74
2024/01/25 01:40:57;;;;;;;30.33;5.80;;;7.20;99.90;;;;;;5110525;28;20114;-74
2024/01/25 01:43:23;;;;;;;27.50;4.95;;;7.10;99.90;;;;;;5111811;28;20039;-74
2024/01/25 01:45:49;;;;;;;26.55;5.78;;;7.20;99.90;;;;;;5111603;28;20040;-74
2024/01/25 01:48:16;;;;;;;23.98;5.30;;;7.20;99.90;;;;;;5111458;28;20407;-74
2024/01/25 01:50:43;;;;;;;29.38;5.68;;;7.10;99.90;;;;;;5111439;28;20044;-74
2024/01/25 01:53:10;;;;;;;20.10;5.10;;;7.10;99.90;;;;;;5111633;28;20398;-74
2024/01/25 01:55:37;;;;;;;30.30;5.50;;;7.00;99.90;;;;;;5110392;28;20046;-74
2024/01/25 01:58:03;;;;;;;32.45;5.80;;;7.10;99.90;;;;;;5111395;28;20060;-74
2024/01/25 02:00:30;;;;;;;28.77;5.07;;;7.10;99.90;;;;;;5110099;28;20057;-74
2024/01/25 02:02:59;;;;;;;25.48;5.25;;;7.00;99.90;;;;;;5111514;28;20032;-74
2024/01/25 02:05:24;;;;;;;32.13;5.60;;;7.10;99.90;;;;;;5111279;28;20509;-74
2024/01/25 02:07:52;;;;;;;29.83;5.97;;;7.00;99.90;;;;;;5109961;28;20039;-74
2024/01/25 02:10:18;;;;;;;20.52;4.15;;;7.00;99.90;;;;;;5112810;28;20517;-74
2024/01/25 02:12:43;;;;;;;22.15;4.82;;;7.00;99.90;;;;;;5115143;28;20031;-74
2024/01/25 02:15:09;;;;;;;32.40;6.72;;;6.90;99.90;;;;;;5113822;28;20035;-74
2024/01/25 02:17:35;;;;;;;24.08;6.10;;;7.00;99.90;;;;;;5114825;28;20487;-74
2024/01/25 02:20:03;;;;;;;36.20;6.40;;;6.90;99.90;;;;;;5113865;28;20048;-74
2024/01/25 02:22:28;;;;;;;24.35;5.00;;;6.90;99.90;;;;;;5113717;28;20042;-74
2024/01/25 02:24:54;;;;;;;28.85;5.30;;;7.00;99.90;;;;;;5113508;28;20043;-74
2024/01/25 02:27:20;;;;;;;28.35;5.45;;;7.00;99.90;;;;;;5113370;28;20054;-74
2024/01/25 02:29:45;;;;;;;27.55;6.10;;;6.90;99.90;;;;;;5113260;28;20043;-74
2024/01/25 02:32:11;;;;;;;22.08;5.15;;;6.80;99.90;;;;;;5113378;28;20173;-74
2024/01/25 02:34:36;;;;;;;22.00;4.88;;;6.80;99.90;;;;;;5113318;28;20057;-74
2024/01/25 02:37:02;;;;;;;23.88;5.65;;;6.80;99.90;;;;;;5114584;28;20097;-74
2024/01/25 02:39:28;;;;;;;21.98;5.63;;;6.90;99.90;;;;;;5114435;28;20458;-74
2024/01/25 02:41:54;;;;;;;28.38;6.50;;;6.90;99.90;;;;;;5096253;28;20035;-74
2024/01/25 02:44:19;;;;;;;30.23;5.68;;;6.80;99.90;;;;;;5114503;28;20059;-74
2024/01/25 02:46:46;;;;;;;26.30;5.30;;;6.80;99.90;;;;;;5114193;28;20119;-74
2024/01/25 02:49:12;;;;;;;35.45;5.55;;;6.80;99.90;;;;;;5112745;28;20488;-74
2024/01/25 02:51:37;;;;;;;31.42;6.70;;;6.80;99.90;;;;;;5113132;28;20046;-74
2024/01/25 02:54:03;;;;;;;26.88;6.68;;;6.80;99.90;;;;;;5112938;28;20032;-74
2024/01/25 02:56:34;;;;;;;30.58;5.10;;;6.80;99.90;;;;;;5114091;28;20133;-74
2024/01/25 02:59:01;;;;;;;35.00;7.18;;;6.80;99.90;;;;;;5112659;28;20043;-74
2024/01/25 03:01:27;;;;;;;22.27;5.72;;;6.80;99.90;;;;;;5112829;28;20119;-74
2024/01/25 03:03:53;;;;;;;33.47;6.43;;;6.80;99.90;;;;;;5113119;28;20078;-74
2024/01/25 03:06:19;;;;;;;28.05;7.22;;;6.70;99.90;;;;;;5113018;28;20031;-74
2024/01/25 03:08:45;;;;;;;30.02;5.75;;;6.80;99.90;;;;;;5112593;28;20042;-74
2024/01/25 03:11:11;;;;;;;39.80;7.88;;;6.70;99.90;;;;;;5114051;28;20118;-75
2024/01/25 03:13:36;;;;;;;31.45;6.38;;;6.70;99.90;;;;;;5112656;28;20558;-74
2024/01/25 03:16:02;;;;;;;32.38;6.05;;;6.60;99.90;;;;;;5095369;28;20168;-74
2024/01/25 03:18:27;;;;;;;24.52;6.43;;;6.80;99.90;;;;;;5112363;28;20048;-74
2024/01/25 03:20:53;;;;;;;35.20;7.15;;;6.60;99.90;;;;;;5112136;28;20063;-74
2024/01/25 03:23:19;;;;;;;34.25;7.65;;;6.70;99.90;;;;;;5092825;28;20106;-74
2024/01/25 03:25:44;;;;;;;30.35;5.93;;;6.70;99.90;;;;;;5092098;28;20467;-74
2024/01/25 03:28:13;;;;;;;37.92;6.78;;;6.60;99.90;;;;;;5091890;28;20564;-74
2024/01/25 03:30:38;;;;;;;38.97;7.38;;;6.70;99.90;;;;;;5093112;28;20044;-74
2024/01/25 03:33:04;;;;;;;31.35;5.80;;;6.60;99.90;;;;;;5093075;28;20051;-74
2024/01/25 03:35:30;;;;;;;26.60;7.13;;;6.60;99.90;;;;;;5098627;28;20034;-74
2024/01/25 03:37:55;;;;;;;23.33;5.80;;;6.60;99.90;;;;;;5113384;28;20632;-74
2024/01/25 03:40:21;;;;;;;31.00;6.75;;;6.70;99.90;;;;;;5113307;28;20063;-74
2024/01/25 03:42:46;;;;;;;36.42;7.88;;;6.60;99.90;;;;;;5112014;28;20040;-74
2024/01/25 03:45:12;;;;;;;31.02;9.15;;;6.60;99.90;;;;;;5111899;28;20035;-74
2024/01/25 03:47:38;;;;;;;26.17;5.63;;;6.60;99.90;;;;;;5113337;28;20036;-74
2024/01/25 03:50:04;;;;;;;32.63;7.45;;;6.60;99.90;;;;;;5111769;28;20451;-74
2024/01/25 03:52:30;;;;;;;37.42;8.02;;;6.50;99.90;;;;;;5113024;28;20395;-74
2024/01/25 03:54:55;;;;;;;37.97;7.75;;;6.40;99.90;;;;;;5111571;28;20036;-74
2024/01/25 03:57:21;;;;;;;31.08;6.95;;;6.60;99.90;;;;;;5109633;28;20127;-74
2024/01/25 03:59:47;;;;;;;28.55;8.85;;;6.60;99.90;;;;;;5096990;28;20415;-74
2024/01/25 04:02:12;;;;;;;27.60;6.55;;;6.50;99.90;;;;;;5091276;28;20040;-74
2024/01/25 04:04:38;;;;;;;33.45;6.85;;;6.50;99.90;;;;;;5099492;28;20093;-74
2024/01/25 04:07:04;;;;;;;37.35;6.43;;;6.50;99.90;;;;;;5110125;28;20035;-74
2024/01/25 04:09:29;;;;;;;30.98;6.30;;;6.50;99.90;;;;;;5112682;28;20036;-74
2024/01/25 04:11:56;;;;;;;24.60;5.45;;;6.50;99.90;;;;;;5112837;28;20042;-74
2024/01/25 04:14:21;;;;;;;31.17;5.68;;;6.30;99.90;;;;;;5111374;28;20042;-74
2024/01/25 04:16:49;;;;;;;28.92;4.88;;;6.30;99.90;;;;;;5111150;28;20044;-74
2024/01/25 04:19:14;;;;;;;24.30;5.72;;;6.40;99.90;;;;;;5094424;28;20423;-74
2024/01/25 04:21:40;;;;;;;33.65;7.22;;;6.30;99.90;;;;;;5112540;28;20035;-74
2024/01/25 04:24:06;;;;;;;36.03;8.68;;;6.30;99.90;;;;;;5104096;28;20114;-74
2024/01/25 04:26:32;;;;;;;31.15;8.25;;;6.20;99.90;;;;;;5112455;28;20032;-74
2024/01/25 04:28:57;;;;;;;28.58;5.90;;;6.30;99.90;;;;;;5110948;28;20119;-74
2024/01/25 04:31:23;;;;;;;31.38;5.95;;;6.30;99.90;;;;;;5111105;28;20047;-74
2024/01/25 04:33:49;;;;;;;33.30;6.65;;;6.20;99.90;;;;;;5110782;28;20043;-74
2024/01/25 04:36:14;;;;;;;32.50;6.93;;;6.30;99.90;;;;;;5111230;28;20047;-74
2024/01/25 04:38:40;;;;;;;25.58;6.05;;;6.20;99.90;;;;;;5112107;28;20043;-74
2024/01/25 04:41:06;;;;;;;30.00;6.78;;;6.30;99.90;;;;;;5112283;28;20031;-74
2024/01/25 04:43:36;;;;;;;33.90;5.70;;;6.10;99.90;;;;;;5110903;28;20472;-74
2024/01/25 04:46:02;;;;;;;31.52;6.45;;;6.10;99.90;;;;;;5112217;28;20043;-74
2024/01/25 04:48:28;;;;;;;34.55;6.93;;;6.20;99.90;;;;;;5102528;28;20406;-74
2024/01/25 04:50:55;;;;;;;28.75;5.38;;;5.90;99.90;;;;;;5112074;28;20039;-74
2024/01/25 04:53:21;;;;;;;24.48;6.18;;;6.10;99.90;;;;;;5110866;28;20043;-74
2024/01/25 04:55:46;;;;;;;25.73;6.47;;;6.00;99.90;;;;;;5112081;28;20435;-74
2024/01/25 04:58:12;;;;;;;25.50;6.85;;;6.00;99.90;;;;;;5110653;28;20036;-74
2024/01/25 05:00:39;;;;;;;24.50;7.40;;;6.00;99.90;;;;;;5110507;28;20511;-74
2024/01/25 05:03:05;;;;;;;33.83;7.75;;;5.90;99.90;;;;;;5110713;28;20662;-74
2024/01/25 05:05:30;;;;;;;32.10;8.43;;;5.90;99.90;;;;;;5110522;28;20050;-74
2024/01/25 05:07:56;;;;;;;23.00;7.22;;;5.60;99.90;;;;;;5102051;28;20093;-73
2024/01/25 05:10:23;;;;;;;24.63;6.60;;;5.80;99.90;;;;;;5110698;28;20422;-73
2024/01/25 05:12:48;;;;;;;27.48;6.68;;;5.80;99.90;;;;;;5110862;28;20098;-74
2024/01/25 05:15:14;;;;;;;31.55;5.82;;;5.70;99.90;;;;;;5110885;28;20035;-74
2024/01/25 05:17:40;;;;;;;36.60;7.18;;;5.50;99.90;;;;;;5111857;28;20546;-74
2024/01/25 05:20:06;;;;;;;35.35;5.57;;;5.50;99.90;;;;;;5111734;28;20032;-74
2024/01/25 05:22:32;;;;;;;26.27;7.35;;;5.50;99.90;;;;;;5111938;28;20043;-73
2024/01/25 05:24:57;;;;;;;33.15;7.03;;;5.60;99.90;;;;;;5110612;28;20028;-73
2024/01/25 05:27:23;;;;;;;32.05;6.45;;;5.60;99.90;;;;;;5093324;28;20032;-74
2024/01/25 05:29:49;;;;;;;28.13;4.78;;;5.50;99.90;;;;;;5110317;28;20036;-74
2024/01/25 05:32:14;;;;;;;23.65;5.05;;;5.40;99.90;;;;;;5093749;28;20407;-74
2024/01/25 05:34:40;;;;;;;28.58;5.43;;;5.60;99.90;;;;;;5110367;28;20044;-74
2024/01/25 05:37:06;;;;;;;33.55;6.38;;;5.50;99.90;;;;;;5111610;28;20193;-74
2024/01/25 05:39:32;;;;;;;31.98;7.43;;;5.70;99.90;;;;;;5110211;28;20036;-74
2024/01/25 05:41:58;;;;;;;32.00;6.15;;;5.60;99.90;;;;;;5111587;28;20146;-74
2024/01/25 05:44:23;;;;;;;31.38;6.20;;;5.60;99.90;;;;;;5111879;28;20077;-74
2024/01/25 05:46:49;;;;;;;31.85;5.50;;;5.40;99.90;;;;;;5115652;28;20046;-74
2024/01/25 05:49:15;;;;;;;34.22;5.82;;;5.40;99.90;;;;;;5114009;28;20027;-73
2024/01/25 05:51:40;;;;;;;23.92;5.60;;;5.30;99.90;;;;;;5115479;28;20051;-74
2024/01/25 05:54:06;;;;;;;35.28;6.70;;;5.50;99.90;;;;;;5114160;28;20387;-74
2024/01/25 05:56:31;;;;;;;36.75;6.80;;;5.50;99.90;;;;;;5113930;28;20074;-74
2024/01/25 05:58:57;;;;;;;27.17;6.53;;;5.40;99.90;;;;;;5115294;28;20071;-74
2024/01/25 06:01:22;;;;;;;25.27;5.28;;;5.40;99.90;;;;;;5114132;28;20069;-73
2024/01/25 06:03:48;;;;;;;27.67;7.35;;;5.20;99.90;;;;;;5114267;28;20469;-74
2024/01/25 06:06:14;;;;;;;24.88;5.60;;;5.10;99.90;;;;;;5113876;28;20118;-73
2024/01/25 06:08:39;;;;;;;46.20;7.72;;;5.30;99.90;;;;;;5115024;28;20039;-74
2024/01/25 06:11:05;;;;;;;34.95;8.05;;;5.30;99.90;;;;;;5114981;28;20039;-74
2024/01/25 06:13:32;;;;;;;25.17;5.13;;;5.10;99.90;;;;;;5114052;28;20453;-74
2024/01/25 06:15:57;;;;;;;29.83;6.95;;;5.20;99.90;;;;;;5113653;28;20084;-74
2024/01/25 06:18:23;;;;;;;31.30;5.97;;;5.30;99.90;;;;;;5114704;28;20048;-73
2024/01/25 06:20:50;;;;;;;31.20;5.10;;;5.00;99.90;;;;;;5114902;28;20040;-73
2024/01/25 06:23:15;;;;;;;27.10;6.10;;;5.20;99.90;;;;;;5113880;28;20040;-74
2024/01/25 06:25:41;;;;;;;30.67;7.60;;;5.10;99.90;;;;;;5114615;28;20042;-73
2024/01/25 06:28:07;;;;;;;28.05;7.20;;;5.20;99.90;;;;;;5113388;28;20402;-74
2024/01/25 06:30:32;;;;;;;41.50;5.97;;;5.00;99.90;;;;;;5114691;28;20081;-74
2024/01/25 06:32:58;;;;;;;36.15;7.47;;;5.20;99.90;;;;;;5114737;28;20043;-74
2024/01/25 06:35:23;;;;;;;33.38;6.72;;;5.20;99.90;;;;;;5114487;28;20044;-74
2024/01/25 06:37:49;;;;;;;35.70;6.55;;;5.20;99.90;;;;;;5114343;28;20048;-74
2024/01/25 06:40:15;;;;;;;25.63;6.78;;;5.20;99.90;;;;;;5113251;28;20074;-73
2024/01/25 06:42:42;;;;;;;35.65;6.85;;;5.20;99.90;;;;;;5114696;27;20088;-74
2024/01/25 06:45:09;;;;;;;38.17;8.88;;;4.90;99.90;;;;;;5112994;28;20487;-73
2024/01/25 06:47:34;;;;;;;38.10;8.35;;;5.00;99.90;;;;;;5095812;28;20380;-74
2024/01/25 06:50:00;;;;;;;34.28;7.00;;;4.90;99.90;;;;;;5114174;28;20050;-74
2024/01/25 06:52:26;;;;;;;38.38;7.05;;;5.10;99.90;;;;;;5113228;28;20046;-74
2024/01/25 06:54:52;;;;;;;32.63;5.93;;;4.90;99.90;;;;;;5114088;28;20031;-74
2024/01/25 06:57:18;;;;;;;39.60;6.93;;;4.80;99.90;;;;;;5113410;28;20556;-73
2024/01/25 06:59:43;;;;;;;32.78;6.47;;;5.20;99.90;;;;;;5112959;28;20047;-74
2024/01/25 07:02:09;;;;;;;34.05;5.75;;;4.80;99.90;;;;;;5114142;28;20067;-74
2024/01/25 07:04:34;;;;;;;33.53;6.65;;;4.90;99.90;;;;;;5112595;28;20027;-74
2024/01/25 07:07:00;;;;;;;37.20;6.57;;;5.10;99.90;;;;;;5112590;28;20047;-73
2024/01/25 07:09:26;;;;;;;33.78;5.75;;;5.00;99.90;;;;;;5112423;28;20426;-74
2024/01/25 07:11:51;;;;;;;38.28;7.00;;;5.00;99.90;;;;;;5112588;28;20040;-73
2024/01/25 07:14:17;;;;;;;31.13;6.47;;;5.10;99.90;;;;;;5114025;28;20123;-74
2024/01/25 07:16:43;;;;;;;32.03;6.28;;;5.30;99.90;;;;;;5112238;28;20071;-73
2024/01/25 07:19:08;;;;;;;31.10;6.57;;;5.00;99.90;;;;;;5113737;28;20110;-75
2024/01/25 07:21:34;;;;;;;31.77;6.60;;;4.90;99.90;;;;;;5112418;28;20050;-75
2024/01/25 07:24:06;;;;;;;34.83;7.60;;;5.00;99.90;;;;;;5112123;28;20073;-75
2024/01/25 07:26:32;;;;;;;36.33;7.00;;;5.10;99.90;;;;;;5113866;28;20134;-75
2024/01/25 07:28:59;;;;;;;28.98;8.20;;;5.20;99.90;;;;;;5112298;28;20511;-75
2024/01/25 07:31:28;;;;;;;36.80;6.28;;;5.00;99.90;;;;;;5112367;28;20118;-75
2024/01/25 07:33:55;;;;;;;39.28;7.90;;;4.90;99.90;;;;;;5112241;28;20046;-76
2024/01/25 07:36:20;;;;;;;27.40;5.88;;;5.30;99.90;;;;;;5112043;28;20051;-76
2024/01/25 07:38:46;;;;;;;43.58;8.82;;;4.90;99.90;;;;;;5113076;28;20403;-75
2024/01/25 07:41:13;;;;;;;34.75;8.02;;;5.30;99.90;;;;;;5112046;28;20039;-75
2024/01/25 07:43:38;;;;;;;34.33;6.78;;;5.00;99.90;;;;;;5113292;28;20043;-75
2024/01/25 07:46:04;;;;;;;41.17;8.25;;;5.20;99.90;;;;;;5113231;28;20036;-76
2024/01/25 07:48:30;;;;;;;35.60;6.40;;;5.10;99.90;;;;;;5111934;28;20036;-75
2024/01/25 07:50:56;;;;;;;34.22;7.72;;;5.00;99.90;;;;;;5111805;28;20119;-76
2024/01/25 07:53:22;;;;;;;30.08;7.32;;;5.20;99.90;;;;;;5112986;28;20101;-76
2024/01/25 07:55:47;;;;;;;39.40;6.68;;;5.30;99.90;;;;;;5112919;28;20092;-77
2024/01/25 07:58:14;;;;;;;33.90;6.32;;;5.30;99.90;;;;;;5113012;28;20118;-76
2024/01/25 08:00:40;;;;;;;30.40;7.20;;;5.10;99.90;;;;;;5111747;28;20043;-76
2024/01/25 08:03:06;;;;;;;32.95;6.60;;;5.30;99.90;;;;;;5112911;28;20043;-76
2024/01/25 08:05:31;;;;;;;31.88;8.57;;;5.30;99.90;;;;;;5111684;28;20108;-77
2024/01/25 08:07:57;;;;;;;26.83;7.07;;;5.10;99.90;;;;;;5103627;28;20123;-76
2024/01/25 08:10:22;;;;;;;36.42;7.32;;;5.40;99.90;;;;;;5100578;28;20027;-76
2024/01/25 08:12:48;;;;;;;39.50;7.25;;;5.50;99.90;;;;;;5106156;28;20048;-76
2024/01/25 08:15:14;;;;;;;27.85;6.85;;;5.40;99.90;;;;;;5111346;28;20035;-76
2024/01/25 08:17:39;;;;;;;26.35;7.55;;;5.20;99.90;;;;;;5112409;28;20122;-76
2024/01/25 08:20:06;;;;;;;30.58;6.18;;;5.30;99.90;;;;;;5112700;28;20407;-76
2024/01/25 08:22:32;;;;;;;37.85;8.05;;;5.40;99.90;;;;;;5112873;28;20100;-76
2024/01/25 08:24:58;;;;;;;30.15;7.80;;;5.30;99.90;;;;;;5112648;28;20084;-76
2024/01/25 08:27:24;;;;;;;42.95;9.07;;;5.30;99.90;;;;;;5111298;28;20411;-76
2024/01/25 08:29:49;;;;;;;33.42;6.50;;;5.30;99.90;;;;;;5112839;28;20040;-81
2024/01/25 08:32:15;;;;;;;32.72;6.65;;;5.40;99.90;;;;;;5111229;28;20525;-77
2024/01/25 08:34:41;;;;;;;29.83;6.30;;;5.30;99.90;;;;;;5111047;28;20048;-77
2024/01/25 08:37:07;;;;;;;38.63;7.38;;;5.40;99.90;;;;;;5111987;28;20050;-76
2024/01/25 08:39:33;;;;;;;38.03;9.30;;;5.50;99.90;;;;;;5112533;28;20028;-76
2024/01/25 08:42:01;;;;;;;37.08;6.70;;;5.40;99.90;;;;;;5112423;28;20031;-76
2024/01/25 08:44:27;;;;;;;44.97;10.52;;;5.50;99.90;;;;;;5094087;28;20114;-76
2024/01/25 08:46:53;;;;;;;42.28;7.93;;;5.50;99.90;;;;;;5110698;28;20031;-76
2024/01/25 08:49:19;;;;;;;46.47;8.98;;;5.60;99.90;;;;;;5110788;28;20028;-76
2024/01/25 08:51:44;;;;;;;28.05;7.57;;;5.50;99.90;;;;;;5112081;28;20040;-76
2024/01/25 08:54:10;;;;;;;41.83;8.77;;;5.70;99.90;;;;;;5111121;28;20039;-77
2024/01/25 08:56:35;;;;;;;31.17;7.15;;;5.70;99.90;;;;;;5107411;28;20039;-77
2024/01/25 08:59:01;;;;;;;39.83;5.90;;;5.50;99.90;;;;;;5105745;28;20032;-77
2024/01/25 09:01:27;;;;;;;30.25;7.00;;;5.60;99.90;;;;;;5103092;28;20084;-76
2024/01/25 09:03:52;;;;;;;33.95;7.30;;;5.60;99.90;;;;;;5076082;28;20055;-76
2024/01/25 09:06:18;;;;;;;28.50;6.97;;;5.60;99.90;;;;;;5098747;28;20115;-76
2024/01/25 09:08:44;;;;;;;28.85;7.70;;;5.80;99.90;;;;;;5111282;28;20032;-76
2024/01/25 09:11:09;;;;;;;35.40;7.78;;;5.70;99.90;;;;;;5107429;28;20076;-76
2024/01/25 09:13:35;;;;;;;29.40;5.85;;;5.80;99.90;;;;;;5111637;28;20168;-76
2024/01/25 09:16:01;;;;;;;31.65;6.57;;;6.00;99.90;;;;;;5111708;28;20514;-76
2024/01/25 09:18:26;;;;;;;29.67;7.35;;;5.90;99.90;;;;;;5110730;28;20057;-76
2024/01/25 09:20:53;;;;;;;41.22;8.68;;;5.70;99.90;;;;;;5114318;28;20071;-76
2024/01/25 09:23:20;;;;;;;27.25;6.43;;;5.80;99.90;;;;;;5116259;28;20050;-76
2024/01/25 09:25:45;;;;;;;34.78;7.18;;;6.00;99.90;;;;;;5114651;28;20411;-76
2024/01/25 09:28:11;;;;;;;40.38;7.30;;;6.00;99.90;;;;;;5116035;28;20036;-76
2024/01/25 09:30:39;;;;;;;36.47;7.55;;;5.90;99.90;;;;;;5114503;28;20044;-76
2024/01/25 09:33:05;;;;;;;34.17;7.28;;;6.10;99.90;;;;;;5114669;28;20040;-76
2024/01/25 09:35:31;;;;;;;39.92;7.97;;;6.10;99.90;;;;;;5115791;28;20036;-76
2024/01/25 09:37:56;;;;;;;43.50;8.20;;;6.10;99.90;;;;;;5114328;28;20559;-76
2024/01/25 09:40:22;;;;;;;32.47;9.00;;;6.10;99.90;;;;;;5115815;28;20040;-76
2024/01/25 09:42:49;;;;;;;33.35;6.85;;;6.20;99.90;;;;;;5114351;28;20031;-75
2024/01/25 09:45:18;;;;;;;34.00;7.38;;;6.20;99.90;;;;;;5114102;28;20031;-76
2024/01/25 09:47:48;;;;;;;35.47;7.97;;;6.40;99.90;;;;;;5114278;28;20495;-76
2024/01/25 09:50:14;;;;;;;30.42;6.65;;;6.20;99.90;;;;;;5114002;28;20084;-72
2024/01/25 09:52:43;;;;;;;29.17;7.32;;;6.20;99.90;;;;;;5113947;28;20048;-73
2024/01/25 09:55:17;;;;;;;33.55;6.38;;;6.30;99.90;;;;;;5115514;28;20036;-72
2024/01/25 09:57:46;;;;;;;31.50;7.70;;;6.40;99.90;;;;;;5114029;28;20550;-72
2024/01/25 10:00:13;;;;;;;39.28;7.25;;;6.60;99.90;;;;;;5110488;28;20035;-72
2024/01/25 10:02:39;;;;;;;43.60;6.68;;;6.60;99.90;;;;;;5105270;28;20074;-72
2024/01/25 10:05:05;;;;;;;35.58;9.27;;;6.60;99.90;;;;;;5111309;28;20111;-73
2024/01/25 10:07:42;;;;;;;39.40;7.22;;;6.60;99.90;;;;;;5114269;28;20050;-73
2024/01/25 10:10:09;;;;;;;33.05;7.57;;;6.70;99.90;;;;;;5115064;28;20047;-73
2024/01/25 10:12:35;;;;;;;39.72;8.07;;;6.80;99.90;;;;;;5113399;28;20023;-72
2024/01/25 10:15:01;;;;;;;23.15;7.45;;;6.90;99.90;;;;;;5113466;28;20049;-73
2024/01/25 10:17:28;;;;;;;35.22;8.10;;;6.90;99.90;;;;;;5113681;28;20036;-73
2024/01/25 10:19:53;;;;;;;32.08;6.97;;;6.90;99.90;;;;;;5114932;28;20070;-72
2024/01/25 10:22:19;;;;;;;38.85;8.05;;;6.90;99.90;;;;;;5113693;28;20040;-73
2024/01/25 10:24:45;;;;;;;37.78;7.78;;;7.00;99.90;;;;;;5114839;28;20080;-73
2024/01/25 10:27:12;;;;;;;28.40;6.45;;;7.10;99.90;;;;;;5113364;28;20051;-73
2024/01/25 10:29:38;;;;;;;33.67;6.38;;;7.00;99.90;;;;;;5114502;28;20079;-73
2024/01/25 10:32:04;;;;;;;33.67;7.10;;;7.10;99.90;;;;;;5112553;28;20081;-73
2024/01/25 10:34:30;;;;;;;36.95;7.65;;;7.00;99.90;;;;;;5114886;28;20472;-73
2024/01/25 10:36:57;;;;;;;31.55;8.48;;;7.20;99.90;;;;;;5113094;28;20080;-73
2024/01/25 10:39:24;;;;;;;25.45;6.75;;;7.10;99.90;;;;;;5114489;28;20040;-73
2024/01/25 10:41:50;;;;;;;30.52;9.93;;;7.10;99.90;;;;;;5108699;28;20027;-73
2024/01/25 10:44:19;;;;;;;37.25;8.32;;;7.10;99.90;;;;;;5104007;28;20108;-73
2024/01/25 10:46:48;;;;;;;35.10;9.63;;;7.00;99.90;;;;;;5098138;28;20044;-73
2024/01/25 10:49:15;;;;;;;44.22;9.73;;;7.00;99.90;;;;;;5092430;28;20082;-73
2024/01/25 10:51:41;;;;;;;25.40;7.13;;;7.00;99.90;;;;;;5095857;28;20044;-73
2024/01/25 10:54:08;;;;;;;33.20;7.95;;;6.90;99.90;;;;;;5114106;28;20071;-73
2024/01/25 10:56:37;;;;;;;33.08;7.95;;;7.10;99.90;;;;;;5103656;28;20067;-73
2024/01/25 10:59:03;;;;;;;34.33;7.22;;;7.10;99.90;;;;;;5101397;28;20090;-72
2024/01/25 11:01:29;;;;;;;28.10;7.60;;;7.10;99.90;;;;;;5110262;28;20471;-73
2024/01/25 11:03:55;;;;;;;34.80;8.35;;;7.20;99.90;;;;;;5113113;28;20130;-73
2024/01/25 11:06:22;;;;;;;36.30;6.97;;;7.20;99.90;;;;;;5112606;28;20040;-74
2024/01/25 11:08:48;;;;;;;34.75;8.88;;;7.30;99.90;;;;;;5113814;28;20080;-73
2024/01/25 11:11:14;;;;;;;35.15;9.27;;;7.30;99.90;;;;;;5112599;28;20035;-74
2024/01/25 11:13:42;;;;;;;31.35;7.65;;;7.40;99.90;;;;;;5112665;28;20529;-74
2024/01/25 11:16:18;;;;;;;39.33;8.02;;;7.40;99.90;;;;;;5112840;28;20047;-73
2024/01/25 11:18:51;;;;;;;35.80;8.63;;;7.50;99.90;;;;;;5112237;28;20044;-74
2024/01/25 11:21:26;;;;;;;26.92;7.57;;;7.50;99.90;;;;;;5112814;28;20539;-73
2024/01/25 11:24:02;;;;;;;35.28;8.70;;;7.50;99.90;;;;;;5106520;28;20039;-73
2024/01/25 11:26:28;;;;;;;32.78;8.07;;;7.60;99.90;;;;;;5108335;28;20042;-73
2024/01/25 11:28:55;;;;;;;37.65;9.02;;;7.60;99.90;;;;;;5105366;28;20527;-72
2024/01/25 11:31:22;;;;;;;35.08;8.07;;;7.60;99.90;;;;;;5103707;28;20461;-73
2024/01/25 11:33:48;;;;;;;36.45;8.85;;;7.50;99.90;;;;;;5102289;28;20067;-73
2024/01/25 11:36:14;;;;;;;31.83;7.32;;;7.60;99.90;;;;;;5109587;28;20526;-73
2024/01/25 11:38:39;;;;;;;35.08;8.13;;;7.60;99.90;;;;;;5110589;28;20050;-74
2024/01/25 11:41:05;;;;;;;45.55;9.95;;;7.60;99.90;;;;;;5112925;28;20027;-74
2024/01/25 11:43:30;;;;;;;27.50;7.85;;;7.60;99.90;;;;;;5111615;28;20118;-71
2024/01/25 11:45:56;;;;;;;32.65;7.57;;;7.70;99.90;;;;;;5111755;28;20028;-73
2024/01/25 11:48:21;;;;;;;34.63;7.47;;;7.80;99.90;;;;;;5111397;28;20036;-73
2024/01/25 11:50:48;;;;;;;39.90;8.80;;;7.70;99.90;;;;;;5111660;28;20036;-73
2024/01/25 11:53:13;;;;;;;33.58;7.68;;;7.80;99.90;;;;;;5113132;28;20047;-73
2024/01/25 11:55:39;;;;;;;28.35;6.65;;;7.80;99.90;;;;;;5112924;28;20031;-73
2024/01/25 11:58:05;;;;;;;35.95;7.85;;;7.80;99.90;;;;;;5111797;28;20046;-73
2024/01/25 12:00:31;;;;;;;23.73;5.82;;;7.80;99.90;;;;;;5110855;28;20110;-73
2024/01/25 12:02:56;;;;;;;29.65;7.63;;;7.90;99.90;;;;;;5111005;28;20035;-73
2024/01/25 12:05:22;;;;;;;24.27;5.28;;;7.90;99.90;;;;;;5112253;28;20372;-71
2024/01/25 12:07:49;;;;;;;32.85;7.80;;;8.00;99.90;;;;;;5111929;28;20052;-70
2024/01/25 12:10:17;;;;;;;28.08;6.50;;;8.10;99.90;;;;;;5112619;28;20085;-73
2024/01/25 12:12:43;;;;;;;32.47;8.88;;;8.10;99.90;;;;;;5112451;28;20036;-72
2024/01/25 12:15:09;;;;;;;24.35;6.57;;;8.10;99.90;;;;;;5112319;28;20050;-73
2024/01/25 12:17:39;;;;;;;15.40;6.05;;;8.10;99.90;;;;;;5109262;28;20035;-73
2024/01/25 12:20:10;;;;;;;27.90;6.68;;;8.20;99.90;;;;;;5112487;28;20487;-73
2024/01/25 12:22:37;;;;;;;30.13;6.20;;;8.20;99.90;;;;;;5112793;28;20074;-73
2024/01/25 12:25:08;;;;;;;44.00;8.18;;;8.30;99.90;;;;;;5111266;28;20100;-73
2024/01/25 12:27:33;;;;;;;36.30;8.18;;;8.30;99.90;;;;;;5112488;28;20120;-73
2024/01/25 12:29:59;;;;;;;31.23;6.18;;;8.30;99.90;;;;;;5110987;28;20071;-73
2024/01/25 12:32:24;;;;;;;26.38;7.47;;;8.30;99.90;;;;;;5111321;28;20046;-73
2024/01/25 12:34:58;;;;;;;25.67;7.28;;;8.30;99.90;;;;;;5112307;28;20518;-74
2024/01/25 12:37:24;;;;;;;38.33;6.28;;;8.30;99.90;;;;;;5100842;28;20036;-74
2024/01/25 12:39:54;;;;;;;33.72;7.88;;;8.40;99.90;;;;;;5090679;28;20036;-74
2024/01/25 12:42:20;;;;;;;23.25;6.78;;;8.30;99.90;;;;;;5095258;28;20032;-73